sensor_id;sensor_type;location;lat;lon;timestamp;P1;durP1;ratioP1;P2;durP2;ratioP2
10535;SDS011;5316;49.538;8.352;2022-07-23T00:00:09;4.70;;;4.30;;
10535;SDS011;5316;49.538;8.352;2022-07-23T00:02:36;5.38;;;4.90;;
10535;SDS011;5316;49.538;8.352;2022-07-23T00:05:03;6.47;;;5.95;;
10535;SDS011;5316;49.538;8.352;2022-07-23T00:07:32;8.98;;;8.07;;
10535;SDS011;5316;49.538;8.352;2022-07-23T00:09:59;9.07;;;5.07;;
10535;SDS011;5316;49.538;8.352;2022-07-23T00:12:25;4.88;;;4.47;;
10535;SDS011;5316;49.538;8.352;2022-07-23T00:14:52;5.97;;;5.13;;
10535;SDS011;5316;49.538;8.352;2022-07-23T00:17:19;5.90;;;4.60;;
10535;SDS011;5316;49.538;8.352;2022-07-23T00:19:46;8.02;;;5.50;;
10535;SDS011;5316;49.538;8.352;2022-07-23T00:22:12;4.93;;;4.55;;
10535;SDS011;5316;49.538;8.352;2022-07-23T00:24:41;5.00;;;4.63;;
10535;SDS011;5316;49.538;8.352;2022-07-23T00:27:07;5.95;;;4.88;;
10535;SDS011;5316;49.538;8.352;2022-07-23T00:29:34;5.25;;;4.82;;
10535;SDS011;5316;49.538;8.352;2022-07-23T00:32:01;5.57;;;4.80;;
10535;SDS011;5316;49.538;8.352;2022-07-23T00:34:27;4.90;;;4.57;;
10535;SDS011;5316;49.538;8.352;2022-07-23T00:36:54;5.80;;;4.80;;
10535;SDS011;5316;49.538;8.352;2022-07-23T00:39:21;5.38;;;4.88;;
10535;SDS011;5316;49.538;8.352;2022-07-23T00:41:49;5.30;;;4.90;;
10535;SDS011;5316;49.538;8.352;2022-07-23T00:44:17;5.82;;;5.20;;
10535;SDS011;5316;49.538;8.352;2022-07-23T00:46:47;5.38;;;4.97;;
10535;SDS011;5316;49.538;8.352;2022-07-23T00:49:17;6.80;;;4.93;;
10535;SDS011;5316;49.538;8.352;2022-07-23T00:51:45;4.65;;;4.30;;
10535;SDS011;5316;49.538;8.352;2022-07-23T00:54:12;5.55;;;5.13;;
10535;SDS011;5316;49.538;8.352;2022-07-23T00:56:39;5.47;;;4.97;;
10535;SDS011;5316;49.538;8.352;2022-07-23T00:59:08;5.22;;;4.82;;
10535;SDS011;5316;49.538;8.352;2022-07-23T01:01:35;6.05;;;5.55;;
10535;SDS011;5316;49.538;8.352;2022-07-23T01:04:02;5.57;;;5.18;;
10535;SDS011;5316;49.538;8.352;2022-07-23T01:06:30;5.57;;;5.18;;
10535;SDS011;5316;49.538;8.352;2022-07-23T01:09:00;5.40;;;5.00;;
10535;SDS011;5316;49.538;8.352;2022-07-23T01:11:27;5.10;;;4.72;;
10535;SDS011;5316;49.538;8.352;2022-07-23T01:13:54;5.68;;;5.13;;
10535;SDS011;5316;49.538;8.352;2022-07-23T01:16:22;5.72;;;5.20;;
10535;SDS011;5316;49.538;8.352;2022-07-23T01:18:49;5.03;;;4.70;;
10535;SDS011;5316;49.538;8.352;2022-07-23T01:21:15;5.70;;;5.10;;
10535;SDS011;5316;49.538;8.352;2022-07-23T01:23:46;6.00;;;4.95;;
10535;SDS011;5316;49.538;8.352;2022-07-23T01:26:13;5.82;;;5.22;;
10535;SDS011;5316;49.538;8.352;2022-07-23T01:28:42;5.32;;;4.93;;
10535;SDS011;5316;49.538;8.352;2022-07-23T01:31:09;5.70;;;5.10;;
10535;SDS011;5316;49.538;8.352;2022-07-23T01:33:35;6.13;;;5.28;;
10535;SDS011;5316;49.538;8.352;2022-07-23T01:36:02;5.75;;;5.18;;
10535;SDS011;5316;49.538;8.352;2022-07-23T01:38:29;5.75;;;5.45;;
10535;SDS011;5316;49.538;8.352;2022-07-23T01:40:57;5.72;;;5.25;;
10535;SDS011;5316;49.538;8.352;2022-07-23T01:43:24;5.53;;;5.05;;
10535;SDS011;5316;49.538;8.352;2022-07-23T01:45:51;5.60;;;5.10;;
10535;SDS011;5316;49.538;8.352;2022-07-23T01:48:18;5.53;;;5.10;;
10535;SDS011;5316;49.538;8.352;2022-07-23T01:50:45;5.50;;;5.10;;
10535;SDS011;5316;49.538;8.352;2022-07-23T01:53:12;7.10;;;5.47;;
10535;SDS011;5316;49.538;8.352;2022-07-23T01:55:39;5.38;;;4.97;;
10535;SDS011;5316;49.538;8.352;2022-07-23T01:58:07;7.78;;;5.28;;
10535;SDS011;5316;49.538;8.352;2022-07-23T02:00:34;5.88;;;5.32;;
10535;SDS011;5316;49.538;8.352;2022-07-23T02:03:01;5.80;;;4.88;;
10535;SDS011;5316;49.538;8.352;2022-07-23T02:05:28;5.65;;;5.15;;
10535;SDS011;5316;49.538;8.352;2022-07-23T02:07:56;6.15;;;5.25;;
10535;SDS011;5316;49.538;8.352;2022-07-23T02:10:23;6.13;;;5.55;;
10535;SDS011;5316;49.538;8.352;2022-07-23T02:12:50;5.95;;;5.47;;
10535;SDS011;5316;49.538;8.352;2022-07-23T02:15:19;5.10;;;4.80;;
10535;SDS011;5316;49.538;8.352;2022-07-23T02:17:45;5.53;;;5.03;;
10535;SDS011;5316;49.538;8.352;2022-07-23T02:20:12;6.15;;;5.57;;
10535;SDS011;5316;49.538;8.352;2022-07-23T02:22:39;5.72;;;5.32;;
10535;SDS011;5316;49.538;8.352;2022-07-23T02:25:07;6.20;;;5.65;;
10535;SDS011;5316;49.538;8.352;2022-07-23T02:27:35;6.60;;;5.88;;
10535;SDS011;5316;49.538;8.352;2022-07-23T02:30:02;5.57;;;5.18;;
10535;SDS011;5316;49.538;8.352;2022-07-23T02:32:31;6.03;;;5.53;;
10535;SDS011;5316;49.538;8.352;2022-07-23T02:34:58;5.15;;;4.72;;
10535;SDS011;5316;49.538;8.352;2022-07-23T02:37:25;7.28;;;6.65;;
10535;SDS011;5316;49.538;8.352;2022-07-23T02:39:52;9.93;;;9.13;;
10535;SDS011;5316;49.538;8.352;2022-07-23T02:42:19;5.75;;;5.32;;
10535;SDS011;5316;49.538;8.352;2022-07-23T02:44:46;6.20;;;5.70;;
10535;SDS011;5316;49.538;8.352;2022-07-23T02:47:13;6.47;;;5.93;;
10535;SDS011;5316;49.538;8.352;2022-07-23T02:49:41;6.53;;;5.43;;
10535;SDS011;5316;49.538;8.352;2022-07-23T02:52:08;6.32;;;5.60;;
10535;SDS011;5316;49.538;8.352;2022-07-23T02:54:35;6.47;;;6.07;;
10535;SDS011;5316;49.538;8.352;2022-07-23T02:57:02;6.78;;;6.05;;
10535;SDS011;5316;49.538;8.352;2022-07-23T02:59:29;6.10;;;5.50;;
10535;SDS011;5316;49.538;8.352;2022-07-23T03:01:56;5.72;;;5.32;;
10535;SDS011;5316;49.538;8.352;2022-07-23T03:04:23;6.00;;;5.50;;
10535;SDS011;5316;49.538;8.352;2022-07-23T03:06:51;6.25;;;5.65;;
10535;SDS011;5316;49.538;8.352;2022-07-23T03:09:18;13.10;;;11.77;;
10535;SDS011;5316;49.538;8.352;2022-07-23T03:11:45;8.57;;;7.07;;
10535;SDS011;5316;49.538;8.352;2022-07-23T03:14:12;6.22;;;5.75;;
10535;SDS011;5316;49.538;8.352;2022-07-23T03:16:38;6.07;;;5.57;;
10535;SDS011;5316;49.538;8.352;2022-07-23T03:19:05;6.72;;;5.78;;
10535;SDS011;5316;49.538;8.352;2022-07-23T03:21:32;6.38;;;5.85;;
10535;SDS011;5316;49.538;8.352;2022-07-23T03:24:00;6.30;;;5.70;;
10535;SDS011;5316;49.538;8.352;2022-07-23T03:26:27;6.93;;;6.43;;
10535;SDS011;5316;49.538;8.352;2022-07-23T03:28:54;6.35;;;5.85;;
10535;SDS011;5316;49.538;8.352;2022-07-23T03:31:21;6.53;;;5.95;;
10535;SDS011;5316;49.538;8.352;2022-07-23T03:33:48;6.65;;;5.55;;
10535;SDS011;5316;49.538;8.352;2022-07-23T03:36:14;6.68;;;6.18;;
10535;SDS011;5316;49.538;8.352;2022-07-23T03:38:41;6.75;;;6.18;;
10535;SDS011;5316;49.538;8.352;2022-07-23T03:41:09;6.80;;;6.20;;
10535;SDS011;5316;49.538;8.352;2022-07-23T03:43:36;6.80;;;5.65;;
10535;SDS011;5316;49.538;8.352;2022-07-23T03:46:03;7.25;;;6.55;;
10535;SDS011;5316;49.538;8.352;2022-07-23T03:48:29;7.25;;;6.72;;
10535;SDS011;5316;49.538;8.352;2022-07-23T03:50:56;7.30;;;6.60;;
10535;SDS011;5316;49.538;8.352;2022-07-23T03:53:23;7.43;;;6.80;;
10535;SDS011;5316;49.538;8.352;2022-07-23T03:55:50;7.85;;;7.15;;
10535;SDS011;5316;49.538;8.352;2022-07-23T03:58:18;7.05;;;6.45;;
10535;SDS011;5316;49.538;8.352;2022-07-23T04:00:44;7.90;;;7.18;;
10535;SDS011;5316;49.538;8.352;2022-07-23T04:03:11;7.97;;;7.38;;
10535;SDS011;5316;49.538;8.352;2022-07-23T04:05:38;7.82;;;7.13;;
10535;SDS011;5316;49.538;8.352;2022-07-23T04:08:05;8.10;;;7.35;;
10535;SDS011;5316;49.538;8.352;2022-07-23T04:10:32;7.30;;;6.80;;
10535;SDS011;5316;49.538;8.352;2022-07-23T04:12:59;8.70;;;7.85;;
10535;SDS011;5316;49.538;8.352;2022-07-23T04:15:27;8.63;;;7.50;;
10535;SDS011;5316;49.538;8.352;2022-07-23T04:17:54;8.13;;;7.43;;
10535;SDS011;5316;49.538;8.352;2022-07-23T04:20:20;8.95;;;7.95;;
10535;SDS011;5316;49.538;8.352;2022-07-23T04:22:47;8.80;;;7.97;;
10535;SDS011;5316;49.538;8.352;2022-07-23T04:25:14;7.53;;;7.03;;
10535;SDS011;5316;49.538;8.352;2022-07-23T04:27:42;7.75;;;7.05;;
10535;SDS011;5316;49.538;8.352;2022-07-23T04:30:09;9.00;;;8.10;;
10535;SDS011;5316;49.538;8.352;2022-07-23T04:32:37;8.45;;;7.65;;
10535;SDS011;5316;49.538;8.352;2022-07-23T04:35:04;8.00;;;7.38;;
10535;SDS011;5316;49.538;8.352;2022-07-23T04:37:31;8.43;;;7.73;;
10535;SDS011;5316;49.538;8.352;2022-07-23T04:39:58;7.93;;;7.23;;
10535;SDS011;5316;49.538;8.352;2022-07-23T04:42:24;8.95;;;8.15;;
10535;SDS011;5316;49.538;8.352;2022-07-23T04:44:51;8.73;;;7.93;;
10535;SDS011;5316;49.538;8.352;2022-07-23T04:47:18;8.88;;;8.07;;
10535;SDS011;5316;49.538;8.352;2022-07-23T04:49:46;8.33;;;7.63;;
10535;SDS011;5316;49.538;8.352;2022-07-23T04:52:13;8.83;;;8.03;;
10535;SDS011;5316;49.538;8.352;2022-07-23T04:54:40;10.10;;;9.20;;
10535;SDS011;5316;49.538;8.352;2022-07-23T04:57:07;8.60;;;7.63;;
10535;SDS011;5316;49.538;8.352;2022-07-23T04:59:33;8.90;;;8.20;;
10535;SDS011;5316;49.538;8.352;2022-07-23T05:02:00;9.30;;;8.13;;
10535;SDS011;5316;49.538;8.352;2022-07-23T05:04:27;9.30;;;8.40;;
10535;SDS011;5316;49.538;8.352;2022-07-23T05:06:55;9.27;;;8.23;;
10535;SDS011;5316;49.538;8.352;2022-07-23T05:09:22;9.33;;;8.43;;
10535;SDS011;5316;49.538;8.352;2022-07-23T05:11:49;9.60;;;8.70;;
10535;SDS011;5316;49.538;8.352;2022-07-23T05:14:16;10.93;;;9.17;;
10535;SDS011;5316;49.538;8.352;2022-07-23T05:16:43;9.67;;;8.80;;
10535;SDS011;5316;49.538;8.352;2022-07-23T05:19:09;10.40;;;9.03;;
10535;SDS011;5316;49.538;8.352;2022-07-23T05:21:36;8.93;;;8.20;;
10535;SDS011;5316;49.538;8.352;2022-07-23T05:24:05;9.80;;;8.80;;
10535;SDS011;5316;49.538;8.352;2022-07-23T05:26:32;9.27;;;8.38;;
10535;SDS011;5316;49.538;8.352;2022-07-23T05:28:59;9.27;;;8.57;;
10535;SDS011;5316;49.538;8.352;2022-07-23T05:31:26;10.27;;;9.37;;
10535;SDS011;5316;49.538;8.352;2022-07-23T05:33:52;9.97;;;9.10;;
10535;SDS011;5316;49.538;8.352;2022-07-23T05:36:19;9.95;;;8.82;;
10535;SDS011;5316;49.538;8.352;2022-07-23T05:38:46;9.37;;;8.60;;
10535;SDS011;5316;49.538;8.352;2022-07-23T05:41:14;10.13;;;9.27;;
10535;SDS011;5316;49.538;8.352;2022-07-23T05:43:42;11.07;;;9.20;;
10535;SDS011;5316;49.538;8.352;2022-07-23T05:46:09;10.00;;;9.10;;
10535;SDS011;5316;49.538;8.352;2022-07-23T05:48:35;11.13;;;9.10;;
10535;SDS011;5316;49.538;8.352;2022-07-23T05:51:02;10.18;;;9.18;;
10535;SDS011;5316;49.538;8.352;2022-07-23T05:53:31;10.60;;;9.70;;
10535;SDS011;5316;49.538;8.352;2022-07-23T05:55:59;10.85;;;9.63;;
10535;SDS011;5316;49.538;8.352;2022-07-23T05:58:27;10.83;;;9.87;;
10535;SDS011;5316;49.538;8.352;2022-07-23T06:00:54;12.10;;;10.87;;
10535;SDS011;5316;49.538;8.352;2022-07-23T06:03:21;11.40;;;10.30;;
10535;SDS011;5316;49.538;8.352;2022-07-23T06:05:48;11.43;;;10.33;;
10535;SDS011;5316;49.538;8.352;2022-07-23T06:08:15;11.27;;;10.20;;
10535;SDS011;5316;49.538;8.352;2022-07-23T06:10:41;13.20;;;10.40;;
10535;SDS011;5316;49.538;8.352;2022-07-23T06:13:08;11.53;;;10.53;;
10535;SDS011;5316;49.538;8.352;2022-07-23T06:15:36;10.87;;;9.97;;
10535;SDS011;5316;49.538;8.352;2022-07-23T06:18:03;11.00;;;9.97;;
10535;SDS011;5316;49.538;8.352;2022-07-23T06:20:30;10.83;;;9.83;;
10535;SDS011;5316;49.538;8.352;2022-07-23T06:22:57;10.77;;;9.77;;
10535;SDS011;5316;49.538;8.352;2022-07-23T06:25:24;10.60;;;9.67;;
10535;SDS011;5316;49.538;8.352;2022-07-23T06:27:51;11.05;;;9.95;;
10535;SDS011;5316;49.538;8.352;2022-07-23T06:30:17;11.40;;;9.82;;
10535;SDS011;5316;49.538;8.352;2022-07-23T06:32:46;10.52;;;9.60;;
10535;SDS011;5316;49.538;8.352;2022-07-23T06:35:13;9.85;;;9.05;;
10535;SDS011;5316;49.538;8.352;2022-07-23T06:37:41;11.05;;;9.90;;
10535;SDS011;5316;49.538;8.352;2022-07-23T06:40:08;11.15;;;10.15;;
10535;SDS011;5316;49.538;8.352;2022-07-23T06:42:36;11.25;;;9.65;;
10535;SDS011;5316;49.538;8.352;2022-07-23T06:45:04;9.85;;;9.05;;
10535;SDS011;5316;49.538;8.352;2022-07-23T06:47:32;10.00;;;9.10;;
10535;SDS011;5316;49.538;8.352;2022-07-23T06:50:01;10.80;;;9.70;;
10535;SDS011;5316;49.538;8.352;2022-07-23T06:52:28;10.07;;;9.18;;
10535;SDS011;5316;49.538;8.352;2022-07-23T06:54:54;10.30;;;9.30;;
10535;SDS011;5316;49.538;8.352;2022-07-23T06:57:21;9.07;;;8.30;;
10535;SDS011;5316;49.538;8.352;2022-07-23T06:59:50;9.93;;;9.02;;
10535;SDS011;5316;49.538;8.352;2022-07-23T07:02:17;9.63;;;8.93;;
10535;SDS011;5316;49.538;8.352;2022-07-23T07:04:44;9.32;;;8.43;;
10535;SDS011;5316;49.538;8.352;2022-07-23T07:07:12;10.90;;;9.90;;
10535;SDS011;5316;49.538;8.352;2022-07-23T07:09:40;10.70;;;9.70;;
10535;SDS011;5316;49.538;8.352;2022-07-23T07:12:08;10.80;;;9.70;;
10535;SDS011;5316;49.538;8.352;2022-07-23T07:14:35;10.30;;;9.30;;
10535;SDS011;5316;49.538;8.352;2022-07-23T07:17:02;10.85;;;9.77;;
10535;SDS011;5316;49.538;8.352;2022-07-23T07:19:29;10.25;;;9.32;;
10535;SDS011;5316;49.538;8.352;2022-07-23T07:21:55;10.32;;;9.35;;
10535;SDS011;5316;49.538;8.352;2022-07-23T07:24:24;12.10;;;10.45;;
10535;SDS011;5316;49.538;8.352;2022-07-23T07:26:52;11.70;;;10.35;;
10535;SDS011;5316;49.538;8.352;2022-07-23T07:29:28;11.18;;;10.10;;
10535;SDS011;5316;49.538;8.352;2022-07-23T07:31:55;10.73;;;9.45;;
10535;SDS011;5316;49.538;8.352;2022-07-23T07:34:22;11.13;;;10.10;;
10535;SDS011;5316;49.538;8.352;2022-07-23T07:36:49;11.63;;;9.73;;
10535;SDS011;5316;49.538;8.352;2022-07-23T07:39:16;10.13;;;9.27;;
10535;SDS011;5316;49.538;8.352;2022-07-23T07:41:45;10.35;;;9.35;;
10535;SDS011;5316;49.538;8.352;2022-07-23T07:44:12;10.05;;;9.07;;
10535;SDS011;5316;49.538;8.352;2022-07-23T07:46:39;9.02;;;8.32;;
10535;SDS011;5316;49.538;8.352;2022-07-23T07:49:06;17.85;;;15.98;;
10535;SDS011;5316;49.538;8.352;2022-07-23T07:51:34;13.77;;;12.50;;
10535;SDS011;5316;49.538;8.352;2022-07-23T07:54:01;10.57;;;9.52;;
10535;SDS011;5316;49.538;8.352;2022-07-23T07:56:28;10.23;;;9.43;;
10535;SDS011;5316;49.538;8.352;2022-07-23T07:59:01;10.95;;;9.95;;
10535;SDS011;5316;49.538;8.352;2022-07-23T08:01:28;10.40;;;9.50;;
10535;SDS011;5316;49.538;8.352;2022-07-23T08:03:55;9.98;;;9.05;;
10535;SDS011;5316;49.538;8.352;2022-07-23T08:06:23;10.40;;;9.40;;
10535;SDS011;5316;49.538;8.352;2022-07-23T08:08:50;9.85;;;8.90;;
10535;SDS011;5316;49.538;8.352;2022-07-23T08:11:17;15.93;;;14.43;;
10535;SDS011;5316;49.538;8.352;2022-07-23T08:13:44;10.57;;;9.57;;
10535;SDS011;5316;49.538;8.352;2022-07-23T08:16:12;9.55;;;8.65;;
10535;SDS011;5316;49.538;8.352;2022-07-23T08:18:39;10.52;;;9.57;;
10535;SDS011;5316;49.538;8.352;2022-07-23T08:21:07;10.20;;;9.32;;
10535;SDS011;5316;49.538;8.352;2022-07-23T08:23:37;8.98;;;8.00;;
10535;SDS011;5316;49.538;8.352;2022-07-23T14:42:31;5.35;;;4.65;;
10535;SDS011;5316;49.538;8.352;2022-07-23T14:45:03;4.70;;;4.30;;
10535;SDS011;5316;49.538;8.352;2022-07-23T14:48:02;4.45;;;4.10;;
10535;SDS011;5316;49.538;8.352;2022-07-23T14:50:53;5.40;;;4.90;;
10535;SDS011;5316;49.538;8.352;2022-07-23T14:54:02;4.13;;;3.72;;
10535;SDS011;5316;49.538;8.352;2022-07-23T14:56:35;5.47;;;5.10;;
10535;SDS011;5316;49.538;8.352;2022-07-23T14:59:04;5.65;;;5.13;;
10535;SDS011;5316;49.538;8.352;2022-07-23T15:01:31;5.18;;;4.88;;
10535;SDS011;5316;49.538;8.352;2022-07-23T15:03:58;5.30;;;4.97;;
10535;SDS011;5316;49.538;8.352;2022-07-23T15:06:27;5.00;;;4.70;;
10535;SDS011;5316;49.538;8.352;2022-07-23T15:08:54;5.18;;;4.78;;
10535;SDS011;5316;49.538;8.352;2022-07-23T15:11:21;5.00;;;4.70;;
10535;SDS011;5316;49.538;8.352;2022-07-23T15:13:48;5.30;;;5.00;;
10535;SDS011;5316;49.538;8.352;2022-07-23T15:16:17;5.65;;;5.25;;
10535;SDS011;5316;49.538;8.352;2022-07-23T15:18:44;7.13;;;4.90;;
10535;SDS011;5316;49.538;8.352;2022-07-23T15:21:11;5.32;;;4.85;;
10535;SDS011;5316;49.538;8.352;2022-07-23T15:23:38;4.88;;;4.68;;
10535;SDS011;5316;49.538;8.352;2022-07-23T15:26:06;6.03;;;5.63;;
10535;SDS011;5316;49.538;8.352;2022-07-23T15:28:43;5.22;;;4.82;;
10535;SDS011;5316;49.538;8.352;2022-07-23T15:36:25;5.75;;;5.35;;
10535;SDS011;5316;49.538;8.352;2022-07-23T15:38:52;5.10;;;4.80;;
10535;SDS011;5316;49.538;8.352;2022-07-23T15:41:19;5.00;;;4.65;;
10535;SDS011;5316;49.538;8.352;2022-07-23T15:43:46;5.25;;;4.90;;
10535;SDS011;5316;49.538;8.352;2022-07-23T15:46:15;5.43;;;5.03;;
10535;SDS011;5316;49.538;8.352;2022-07-23T15:48:42;5.63;;;5.20;;
10535;SDS011;5316;49.538;8.352;2022-07-23T15:51:09;5.22;;;4.82;;
10535;SDS011;5316;49.538;8.352;2022-07-23T15:53:38;5.90;;;5.40;;
10535;SDS011;5316;49.538;8.352;2022-07-23T15:56:05;6.15;;;5.60;;
10535;SDS011;5316;49.538;8.352;2022-07-23T15:58:32;6.40;;;5.82;;
10535;SDS011;5316;49.538;8.352;2022-07-23T16:00:59;5.97;;;5.47;;
10535;SDS011;5316;49.538;8.352;2022-07-23T16:03:28;5.43;;;5.03;;
10535;SDS011;5316;49.538;8.352;2022-07-23T16:05:55;5.70;;;5.20;;
10535;SDS011;5316;49.538;8.352;2022-07-23T16:08:22;5.60;;;5.30;;
10535;SDS011;5316;49.538;8.352;2022-07-23T16:10:50;6.00;;;5.50;;
10535;SDS011;5316;49.538;8.352;2022-07-23T16:13:18;6.15;;;5.65;;
10535;SDS011;5316;49.538;8.352;2022-07-23T16:15:45;5.65;;;5.28;;
10535;SDS011;5316;49.538;8.352;2022-07-23T16:18:12;6.07;;;5.57;;
10535;SDS011;5316;49.538;8.352;2022-07-23T16:20:39;5.63;;;5.13;;
10535;SDS011;5316;49.538;8.352;2022-07-23T16:23:06;5.20;;;4.82;;
10535;SDS011;5316;49.538;8.352;2022-07-23T16:25:33;5.78;;;5.28;;
10535;SDS011;5316;49.538;8.352;2022-07-23T16:28:02;5.53;;;5.13;;
10535;SDS011;5316;49.538;8.352;2022-07-23T16:30:31;6.10;;;5.47;;
10535;SDS011;5316;49.538;8.352;2022-07-23T16:32:59;6.07;;;4.78;;
10535;SDS011;5316;49.538;8.352;2022-07-23T16:35:26;5.13;;;4.70;;
10535;SDS011;5316;49.538;8.352;2022-07-23T16:37:52;6.38;;;5.78;;
10535;SDS011;5316;49.538;8.352;2022-07-23T16:40:19;5.40;;;4.97;;
10535;SDS011;5316;49.538;8.352;2022-07-23T16:42:46;7.53;;;6.85;;
10535;SDS011;5316;49.538;8.352;2022-07-23T16:45:14;4.75;;;4.43;;
10535;SDS011;5316;49.538;8.352;2022-07-23T16:47:41;5.63;;;4.10;;
10535;SDS011;5316;49.538;8.352;2022-07-23T16:50:09;6.85;;;4.57;;
10535;SDS011;5316;49.538;8.352;2022-07-23T16:52:36;5.07;;;4.50;;
10535;SDS011;5316;49.538;8.352;2022-07-23T16:55:05;5.15;;;4.65;;
10535;SDS011;5316;49.538;8.352;2022-07-23T16:57:32;5.22;;;4.80;;
10535;SDS011;5316;49.538;8.352;2022-07-23T17:00:01;5.45;;;4.97;;
10535;SDS011;5316;49.538;8.352;2022-07-23T17:02:31;4.57;;;4.35;;
10535;SDS011;5316;49.538;8.352;2022-07-23T17:04:58;4.78;;;4.47;;
10535;SDS011;5316;49.538;8.352;2022-07-23T17:07:25;4.82;;;4.45;;
10535;SDS011;5316;49.538;8.352;2022-07-23T17:09:53;4.05;;;3.67;;
10535;SDS011;5316;49.538;8.352;2022-07-23T17:12:20;4.55;;;3.92;;
10535;SDS011;5316;49.538;8.352;2022-07-23T17:14:47;4.40;;;4.10;;
10535;SDS011;5316;49.538;8.352;2022-07-23T17:17:14;4.97;;;4.45;;
10535;SDS011;5316;49.538;8.352;2022-07-23T17:19:42;5.00;;;4.60;;
10535;SDS011;5316;49.538;8.352;2022-07-23T17:22:09;4.63;;;4.30;;
10535;SDS011;5316;49.538;8.352;2022-07-23T17:24:36;4.43;;;4.13;;
10535;SDS011;5316;49.538;8.352;2022-07-23T17:27:03;5.68;;;4.57;;
10535;SDS011;5316;49.538;8.352;2022-07-23T17:29:31;7.32;;;6.75;;
10535;SDS011;5316;49.538;8.352;2022-07-23T17:31:57;4.05;;;3.85;;
10535;SDS011;5316;49.538;8.352;2022-07-23T17:34:25;4.05;;;3.85;;
10535;SDS011;5316;49.538;8.352;2022-07-23T17:36:54;4.30;;;4.00;;
10535;SDS011;5316;49.538;8.352;2022-07-23T17:39:20;4.72;;;4.38;;
10535;SDS011;5316;49.538;8.352;2022-07-23T17:41:47;5.93;;;5.45;;
10535;SDS011;5316;49.538;8.352;2022-07-23T17:44:14;4.13;;;3.85;;
10535;SDS011;5316;49.538;8.352;2022-07-23T17:46:43;4.00;;;3.70;;
10535;SDS011;5316;49.538;8.352;2022-07-23T17:49:12;4.30;;;4.00;;
10535;SDS011;5316;49.538;8.352;2022-07-23T17:51:39;4.40;;;3.83;;
10535;SDS011;5316;49.538;8.352;2022-07-23T17:54:09;4.20;;;3.88;;
10535;SDS011;5316;49.538;8.352;2022-07-23T17:56:36;3.80;;;3.50;;
10535;SDS011;5316;49.538;8.352;2022-07-23T17:59:03;4.43;;;4.05;;
10535;SDS011;5316;49.538;8.352;2022-07-23T18:01:30;4.05;;;3.75;;
10535;SDS011;5316;49.538;8.352;2022-07-23T18:04:00;4.75;;;4.28;;
10535;SDS011;5316;49.538;8.352;2022-07-23T18:06:26;5.10;;;4.80;;
10535;SDS011;5316;49.538;8.352;2022-07-23T18:08:53;5.93;;;5.32;;
10535;SDS011;5316;49.538;8.352;2022-07-23T18:11:21;6.22;;;5.70;;
10535;SDS011;5316;49.538;8.352;2022-07-23T18:13:48;5.50;;;5.07;;
10535;SDS011;5316;49.538;8.352;2022-07-23T18:16:15;5.70;;;5.30;;
10535;SDS011;5316;49.538;8.352;2022-07-23T18:18:42;4.88;;;4.40;;
10535;SDS011;5316;49.538;8.352;2022-07-23T18:21:09;4.80;;;4.50;;
10535;SDS011;5316;49.538;8.352;2022-07-23T18:23:37;4.93;;;4.53;;
10535;SDS011;5316;49.538;8.352;2022-07-23T18:26:04;4.82;;;4.35;;
10535;SDS011;5316;49.538;8.352;2022-07-23T18:28:32;4.03;;;3.78;;
10535;SDS011;5316;49.538;8.352;2022-07-23T18:30:59;4.53;;;4.13;;
10535;SDS011;5316;49.538;8.352;2022-07-23T18:33:26;4.90;;;4.40;;
10535;SDS011;5316;49.538;8.352;2022-07-23T18:35:53;17.33;;;15.85;;
10535;SDS011;5316;49.538;8.352;2022-07-23T18:38:21;9.93;;;9.10;;
10535;SDS011;5316;49.538;8.352;2022-07-23T18:40:48;5.45;;;5.05;;
10535;SDS011;5316;49.538;8.352;2022-07-23T18:43:15;4.60;;;4.30;;
10535;SDS011;5316;49.538;8.352;2022-07-23T18:45:45;4.35;;;4.05;;
10535;SDS011;5316;49.538;8.352;2022-07-23T18:48:12;4.13;;;3.85;;
10535;SDS011;5316;49.538;8.352;2022-07-23T18:50:41;4.93;;;4.50;;
10535;SDS011;5316;49.538;8.352;2022-07-23T18:53:09;4.85;;;4.55;;
10535;SDS011;5316;49.538;8.352;2022-07-23T18:55:37;5.00;;;4.65;;
10535;SDS011;5316;49.538;8.352;2022-07-23T18:58:04;5.20;;;4.13;;
10535;SDS011;5316;49.538;8.352;2022-07-23T19:00:32;5.60;;;4.60;;
10535;SDS011;5316;49.538;8.352;2022-07-23T19:03:02;5.13;;;4.72;;
10535;SDS011;5316;49.538;8.352;2022-07-23T19:05:31;6.32;;;5.90;;
10535;SDS011;5316;49.538;8.352;2022-07-23T19:07:57;5.45;;;5.00;;
10535;SDS011;5316;49.538;8.352;2022-07-23T19:10:24;5.43;;;4.90;;
10535;SDS011;5316;49.538;8.352;2022-07-23T19:12:51;4.68;;;4.28;;
10535;SDS011;5316;49.538;8.352;2022-07-23T19:15:18;5.43;;;4.55;;
10535;SDS011;5316;49.538;8.352;2022-07-23T19:17:45;4.80;;;4.50;;
10535;SDS011;5316;49.538;8.352;2022-07-23T19:20:13;4.78;;;4.18;;
10535;SDS011;5316;49.538;8.352;2022-07-23T19:22:40;4.90;;;4.60;;
10535;SDS011;5316;49.538;8.352;2022-07-23T19:25:07;5.32;;;4.82;;
10535;SDS011;5316;49.538;8.352;2022-07-23T19:27:34;4.70;;;4.40;;
10535;SDS011;5316;49.538;8.352;2022-07-23T19:30:03;6.63;;;4.60;;
10535;SDS011;5316;49.538;8.352;2022-07-23T19:32:31;4.28;;;3.97;;
10535;SDS011;5316;49.538;8.352;2022-07-23T19:34:58;6.05;;;4.70;;
10535;SDS011;5316;49.538;8.352;2022-07-23T19:37:26;4.25;;;3.95;;
10535;SDS011;5316;49.538;8.352;2022-07-23T19:39:53;4.95;;;4.55;;
10535;SDS011;5316;49.538;8.352;2022-07-23T19:42:20;5.28;;;4.90;;
10535;SDS011;5316;49.538;8.352;2022-07-23T19:44:47;7.45;;;6.90;;
10535;SDS011;5316;49.538;8.352;2022-07-23T19:47:13;4.75;;;4.35;;
10535;SDS011;5316;49.538;8.352;2022-07-23T19:49:41;4.53;;;4.18;;
10535;SDS011;5316;49.538;8.352;2022-07-23T19:52:08;6.68;;;6.07;;
10535;SDS011;5316;49.538;8.352;2022-07-23T19:54:37;4.20;;;3.80;;
10535;SDS011;5316;49.538;8.352;2022-07-23T19:57:04;3.95;;;3.47;;
10535;SDS011;5316;49.538;8.352;2022-07-23T19:59:31;3.83;;;3.47;;
10535;SDS011;5316;49.538;8.352;2022-07-23T20:01:58;5.60;;;4.32;;
10535;SDS011;5316;49.538;8.352;2022-07-23T20:04:26;4.95;;;4.55;;
10535;SDS011;5316;49.538;8.352;2022-07-23T20:06:53;3.97;;;3.50;;
10535;SDS011;5316;49.538;8.352;2022-07-23T20:09:20;6.53;;;3.90;;
10535;SDS011;5316;49.538;8.352;2022-07-23T20:11:49;3.58;;;3.38;;
10535;SDS011;5316;49.538;8.352;2022-07-23T20:14:16;4.15;;;3.95;;
10535;SDS011;5316;49.538;8.352;2022-07-23T20:16:43;6.00;;;5.07;;
10535;SDS011;5316;49.538;8.352;2022-07-23T20:19:11;4.22;;;3.78;;
10535;SDS011;5316;49.538;8.352;2022-07-23T20:21:38;3.40;;;3.10;;
10535;SDS011;5316;49.538;8.352;2022-07-23T20:24:10;4.00;;;3.65;;
10535;SDS011;5316;49.538;8.352;2022-07-23T20:26:37;3.33;;;3.13;;
10535;SDS011;5316;49.538;8.352;2022-07-23T20:29:05;4.15;;;3.80;;
10535;SDS011;5316;49.538;8.352;2022-07-23T20:31:32;5.55;;;3.90;;
10535;SDS011;5316;49.538;8.352;2022-07-23T20:33:58;4.30;;;3.78;;
10535;SDS011;5316;49.538;8.352;2022-07-23T20:36:25;4.13;;;3.83;;
10535;SDS011;5316;49.538;8.352;2022-07-23T20:38:52;4.82;;;3.40;;
10535;SDS011;5316;49.538;8.352;2022-07-23T20:41:19;3.40;;;3.13;;
10535;SDS011;5316;49.538;8.352;2022-07-23T20:43:45;4.05;;;3.05;;
10535;SDS011;5316;49.538;8.352;2022-07-23T20:46:13;3.78;;;3.45;;
10535;SDS011;5316;49.538;8.352;2022-07-23T20:48:40;3.38;;;3.00;;
10535;SDS011;5316;49.538;8.352;2022-07-23T20:51:07;4.03;;;3.35;;
10535;SDS011;5316;49.538;8.352;2022-07-23T20:53:33;3.78;;;3.20;;
10535;SDS011;5316;49.538;8.352;2022-07-23T20:56:00;2.92;;;2.72;;
10535;SDS011;5316;49.538;8.352;2022-07-23T20:58:27;6.40;;;3.20;;
10535;SDS011;5316;49.538;8.352;2022-07-23T21:00:53;3.30;;;3.00;;
10535;SDS011;5316;49.538;8.352;2022-07-23T21:03:21;3.70;;;3.13;;
10535;SDS011;5316;49.538;8.352;2022-07-23T21:05:48;3.05;;;2.83;;
10535;SDS011;5316;49.538;8.352;2022-07-23T21:08:15;3.13;;;2.88;;
10535;SDS011;5316;49.538;8.352;2022-07-23T21:10:42;3.60;;;3.10;;
10535;SDS011;5316;49.538;8.352;2022-07-23T21:13:08;2.88;;;2.67;;
10535;SDS011;5316;49.538;8.352;2022-07-23T21:15:35;3.28;;;3.00;;
10535;SDS011;5316;49.538;8.352;2022-07-23T21:18:02;3.03;;;2.83;;
10535;SDS011;5316;49.538;8.352;2022-07-23T21:20:30;4.40;;;2.75;;